sensor_id;sensor_type;location;lat;lon;timestamp;P1;durP1;ratioP1;P2;durP2;ratioP2
65822;SDS011;52585;47.566;19.056;2022-10-16T00:01:27;6.80;;;4.90;;
65822;SDS011;52585;47.566;19.056;2022-10-16T00:03:55;7.90;;;4.40;;
65822;SDS011;52585;47.566;19.056;2022-10-16T00:06:23;7.80;;;4.40;;
65822;SDS011;52585;47.566;19.056;2022-10-16T00:08:52;6.40;;;4.30;;
65822;SDS011;52585;47.566;19.056;2022-10-16T00:11:23;7.00;;;4.50;;
65822;SDS011;52585;47.566;19.056;2022-10-16T00:13:56;8.10;;;4.50;;
65822;SDS011;52585;47.566;19.056;2022-10-16T00:16:25;6.10;;;4.20;;
65822;SDS011;52585;47.566;19.056;2022-10-16T00:18:52;6.90;;;4.40;;
65822;SDS011;52585;47.566;19.056;2022-10-16T00:21:20;10.70;;;4.70;;
65822;SDS011;52585;47.566;19.056;2022-10-16T00:23:52;8.80;;;4.30;;
65822;SDS011;52585;47.566;19.056;2022-10-16T00:26:19;7.50;;;5.00;;
65822;SDS011;52585;47.566;19.056;2022-10-16T00:28:48;9.00;;;4.80;;
65822;SDS011;52585;47.566;19.056;2022-10-16T00:31:16;6.70;;;4.50;;
65822;SDS011;52585;47.566;19.056;2022-10-16T00:33:43;5.80;;;4.70;;
65822;SDS011;52585;47.566;19.056;2022-10-16T00:36:12;7.40;;;4.50;;
65822;SDS011;52585;47.566;19.056;2022-10-16T00:38:40;5.50;;;4.50;;
65822;SDS011;52585;47.566;19.056;2022-10-16T00:41:09;7.10;;;4.30;;
65822;SDS011;52585;47.566;19.056;2022-10-16T00:43:47;7.80;;;4.50;;
65822;SDS011;52585;47.566;19.056;2022-10-16T00:46:23;6.60;;;4.50;;
65822;SDS011;52585;47.566;19.056;2022-10-16T00:51:26;7.50;;;4.30;;
65822;SDS011;52585;47.566;19.056;2022-10-16T00:53:59;9.10;;;4.50;;
65822;SDS011;52585;47.566;19.056;2022-10-16T00:56:27;8.90;;;4.50;;
65822;SDS011;52585;47.566;19.056;2022-10-16T00:58:53;9.10;;;4.30;;
65822;SDS011;52585;47.566;19.056;2022-10-16T01:01:19;4.80;;;4.40;;
65822;SDS011;52585;47.566;19.056;2022-10-16T01:03:44;4.80;;;4.20;;
65822;SDS011;52585;47.566;19.056;2022-10-16T01:06:24;5.30;;;3.90;;
65822;SDS011;52585;47.566;19.056;2022-10-16T01:12:12;7.40;;;4.40;;
65822;SDS011;52585;47.566;19.056;2022-10-16T01:15:04;6.40;;;4.70;;
65822;SDS011;52585;47.566;19.056;2022-10-16T01:17:57;8.60;;;4.60;;
65822;SDS011;52585;47.566;19.056;2022-10-16T01:20:38;5.40;;;4.20;;
65822;SDS011;52585;47.566;19.056;2022-10-16T01:26:10;7.10;;;4.20;;
65822;SDS011;52585;47.566;19.056;2022-10-16T01:31:39;5.90;;;4.00;;
65822;SDS011;52585;47.566;19.056;2022-10-16T01:34:19;4.80;;;3.70;;
65822;SDS011;52585;47.566;19.056;2022-10-16T01:36:56;7.60;;;3.80;;
65822;SDS011;52585;47.566;19.056;2022-10-16T01:39:32;7.30;;;3.30;;
65822;SDS011;52585;47.566;19.056;2022-10-16T01:42:16;5.90;;;4.00;;
65822;SDS011;52585;47.566;19.056;2022-10-16T01:44:48;7.70;;;3.80;;
65822;SDS011;52585;47.566;19.056;2022-10-16T01:47:17;4.50;;;4.00;;
65822;SDS011;52585;47.566;19.056;2022-10-16T01:49:56;5.80;;;3.80;;
65822;SDS011;52585;47.566;19.056;2022-10-16T01:52:26;5.20;;;4.00;;
65822;SDS011;52585;47.566;19.056;2022-10-16T01:54:56;8.50;;;4.00;;
65822;SDS011;52585;47.566;19.056;2022-10-16T01:57:25;5.70;;;4.00;;
65822;SDS011;52585;47.566;19.056;2022-10-16T02:00:10;8.90;;;4.00;;
65822;SDS011;52585;47.566;19.056;2022-10-16T02:02:41;6.60;;;3.90;;
65822;SDS011;52585;47.566;19.056;2022-10-16T02:05:18;4.80;;;4.00;;
65822;SDS011;52585;47.566;19.056;2022-10-16T02:07:49;6.30;;;3.80;;
65822;SDS011;52585;47.566;19.056;2022-10-16T02:10:22;5.00;;;4.10;;
65822;SDS011;52585;47.566;19.056;2022-10-16T02:16:06;8.70;;;3.80;;
65822;SDS011;52585;47.566;19.056;2022-10-16T02:18:34;9.70;;;3.90;;
65822;SDS011;52585;47.566;19.056;2022-10-16T02:21:23;10.00;;;3.90;;
65822;SDS011;52585;47.566;19.056;2022-10-16T02:29:50;7.80;;;4.00;;
65822;SDS011;52585;47.566;19.056;2022-10-16T02:32:26;5.40;;;3.80;;
65822;SDS011;52585;47.566;19.056;2022-10-16T02:35:00;5.90;;;3.60;;
65822;SDS011;52585;47.566;19.056;2022-10-16T02:37:28;12.40;;;4.60;;
65822;SDS011;52585;47.566;19.056;2022-10-16T02:39:58;5.70;;;3.70;;
65822;SDS011;52585;47.566;19.056;2022-10-16T02:42:35;5.60;;;4.00;;
65822;SDS011;52585;47.566;19.056;2022-10-16T02:45:04;7.10;;;4.00;;
65822;SDS011;52585;47.566;19.056;2022-10-16T02:47:31;4.00;;;3.60;;
65822;SDS011;52585;47.566;19.056;2022-10-16T02:49:57;4.40;;;3.50;;
65822;SDS011;52585;47.566;19.056;2022-10-16T02:52:24;6.40;;;3.70;;
65822;SDS011;52585;47.566;19.056;2022-10-16T02:54:52;5.00;;;3.80;;
65822;SDS011;52585;47.566;19.056;2022-10-16T02:57:18;8.30;;;3.50;;
65822;SDS011;52585;47.566;19.056;2022-10-16T02:59:45;9.10;;;4.90;;
65822;SDS011;52585;47.566;19.056;2022-10-16T03:02:11;6.90;;;4.10;;
65822;SDS011;52585;47.566;19.056;2022-10-16T03:04:40;4.20;;;3.80;;
65822;SDS011;52585;47.566;19.056;2022-10-16T03:07:08;6.20;;;3.90;;
65822;SDS011;52585;47.566;19.056;2022-10-16T03:09:38;7.70;;;4.20;;
65822;SDS011;52585;47.566;19.056;2022-10-16T03:12:07;6.00;;;3.60;;
65822;SDS011;52585;47.566;19.056;2022-10-16T03:14:33;5.60;;;4.00;;
65822;SDS011;52585;47.566;19.056;2022-10-16T03:16:59;6.10;;;4.00;;
65822;SDS011;52585;47.566;19.056;2022-10-16T03:19:24;9.90;;;4.00;;
65822;SDS011;52585;47.566;19.056;2022-10-16T03:21:50;7.10;;;4.00;;
65822;SDS011;52585;47.566;19.056;2022-10-16T03:24:16;6.50;;;3.60;;
65822;SDS011;52585;47.566;19.056;2022-10-16T03:26:42;4.00;;;3.70;;
65822;SDS011;52585;47.566;19.056;2022-10-16T03:29:07;5.10;;;3.70;;
65822;SDS011;52585;47.566;19.056;2022-10-16T03:31:35;10.50;;;4.70;;
65822;SDS011;52585;47.566;19.056;2022-10-16T03:34:00;7.70;;;3.80;;
65822;SDS011;52585;47.566;19.056;2022-10-16T03:36:27;7.60;;;3.60;;
65822;SDS011;52585;47.566;19.056;2022-10-16T03:38:54;5.10;;;3.50;;
65822;SDS011;52585;47.566;19.056;2022-10-16T03:41:19;8.60;;;4.40;;
65822;SDS011;52585;47.566;19.056;2022-10-16T03:43:45;4.80;;;3.80;;
65822;SDS011;52585;47.566;19.056;2022-10-16T03:46:12;6.50;;;4.20;;
65822;SDS011;52585;47.566;19.056;2022-10-16T03:48:38;8.60;;;4.10;;
65822;SDS011;52585;47.566;19.056;2022-10-16T03:51:05;7.80;;;3.80;;
65822;SDS011;52585;47.566;19.056;2022-10-16T03:53:31;6.50;;;4.30;;
65822;SDS011;52585;47.566;19.056;2022-10-16T03:55:57;5.50;;;4.10;;
65822;SDS011;52585;47.566;19.056;2022-10-16T03:58:23;7.40;;;4.20;;
65822;SDS011;52585;47.566;19.056;2022-10-16T04:00:49;5.50;;;4.10;;
65822;SDS011;52585;47.566;19.056;2022-10-16T04:03:15;6.40;;;3.70;;
65822;SDS011;52585;47.566;19.056;2022-10-16T04:05:44;8.20;;;3.70;;
65822;SDS011;52585;47.566;19.056;2022-10-16T04:08:10;7.60;;;4.00;;
65822;SDS011;52585;47.566;19.056;2022-10-16T04:10:36;4.40;;;3.50;;
65822;SDS011;52585;47.566;19.056;2022-10-16T04:13:02;5.30;;;4.50;;
65822;SDS011;52585;47.566;19.056;2022-10-16T04:15:29;6.90;;;4.00;;
65822;SDS011;52585;47.566;19.056;2022-10-16T04:17:56;7.60;;;3.90;;
65822;SDS011;52585;47.566;19.056;2022-10-16T04:20:22;8.30;;;4.10;;
65822;SDS011;52585;47.566;19.056;2022-10-16T04:22:47;8.30;;;4.20;;
65822;SDS011;52585;47.566;19.056;2022-10-16T04:25:13;9.20;;;4.60;;
65822;SDS011;52585;47.566;19.056;2022-10-16T04:27:39;5.70;;;4.30;;
65822;SDS011;52585;47.566;19.056;2022-10-16T04:30:06;6.60;;;4.60;;
65822;SDS011;52585;47.566;19.056;2022-10-16T04:32:33;5.00;;;4.20;;
65822;SDS011;52585;47.566;19.056;2022-10-16T04:35:00;4.50;;;4.00;;
65822;SDS011;52585;47.566;19.056;2022-10-16T04:37:27;6.20;;;4.10;;
65822;SDS011;52585;47.566;19.056;2022-10-16T04:39:54;7.70;;;5.10;;
65822;SDS011;52585;47.566;19.056;2022-10-16T04:42:20;8.10;;;4.70;;
65822;SDS011;52585;47.566;19.056;2022-10-16T04:44:51;6.10;;;4.70;;
65822;SDS011;52585;47.566;19.056;2022-10-16T04:47:17;7.70;;;4.70;;
65822;SDS011;52585;47.566;19.056;2022-10-16T04:49:43;5.00;;;4.30;;
65822;SDS011;52585;47.566;19.056;2022-10-16T04:52:08;6.40;;;4.80;;
65822;SDS011;52585;47.566;19.056;2022-10-16T04:54:37;6.30;;;4.50;;
65822;SDS011;52585;47.566;19.056;2022-10-16T04:57:03;6.80;;;4.20;;
65822;SDS011;52585;47.566;19.056;2022-10-16T04:59:30;6.10;;;4.90;;
65822;SDS011;52585;47.566;19.056;2022-10-16T05:01:57;5.50;;;4.90;;
65822;SDS011;52585;47.566;19.056;2022-10-16T05:04:24;8.90;;;5.50;;
65822;SDS011;52585;47.566;19.056;2022-10-16T05:06:50;7.00;;;4.90;;
65822;SDS011;52585;47.566;19.056;2022-10-16T05:09:17;7.80;;;5.20;;
65822;SDS011;52585;47.566;19.056;2022-10-16T05:11:43;5.80;;;5.00;;
65822;SDS011;52585;47.566;19.056;2022-10-16T05:14:09;7.10;;;5.20;;
65822;SDS011;52585;47.566;19.056;2022-10-16T05:16:35;7.70;;;5.20;;
65822;SDS011;52585;47.566;19.056;2022-10-16T05:19:02;7.90;;;5.50;;
65822;SDS011;52585;47.566;19.056;2022-10-16T05:21:28;7.60;;;5.40;;
65822;SDS011;52585;47.566;19.056;2022-10-16T05:23:54;7.70;;;5.10;;
65822;SDS011;52585;47.566;19.056;2022-10-16T05:26:21;6.60;;;5.40;;
65822;SDS011;52585;47.566;19.056;2022-10-16T05:29:06;10.20;;;5.10;;
65822;SDS011;52585;47.566;19.056;2022-10-16T05:31:39;6.30;;;5.20;;
65822;SDS011;52585;47.566;19.056;2022-10-16T05:34:05;7.60;;;5.10;;
65822;SDS011;52585;47.566;19.056;2022-10-16T05:36:31;6.90;;;5.00;;
65822;SDS011;52585;47.566;19.056;2022-10-16T05:38:57;6.60;;;5.10;;
65822;SDS011;52585;47.566;19.056;2022-10-16T05:41:22;7.40;;;4.80;;
65822;SDS011;52585;47.566;19.056;2022-10-16T05:43:51;9.10;;;5.10;;
65822;SDS011;52585;47.566;19.056;2022-10-16T05:46:19;9.00;;;5.60;;
65822;SDS011;52585;47.566;19.056;2022-10-16T05:48:45;9.10;;;5.30;;
65822;SDS011;52585;47.566;19.056;2022-10-16T05:51:13;8.10;;;5.70;;
65822;SDS011;52585;47.566;19.056;2022-10-16T05:53:41;6.50;;;5.60;;
65822;SDS011;52585;47.566;19.056;2022-10-16T05:56:11;11.00;;;6.30;;
65822;SDS011;52585;47.566;19.056;2022-10-16T05:58:38;10.80;;;6.20;;
65822;SDS011;52585;47.566;19.056;2022-10-16T06:01:13;7.90;;;5.70;;
65822;SDS011;52585;47.566;19.056;2022-10-16T06:03:43;9.80;;;6.20;;
65822;SDS011;52585;47.566;19.056;2022-10-16T06:06:16;10.50;;;5.40;;
65822;SDS011;52585;47.566;19.056;2022-10-16T06:08:45;7.50;;;6.00;;
65822;SDS011;52585;47.566;19.056;2022-10-16T06:11:21;6.60;;;5.90;;
65822;SDS011;52585;47.566;19.056;2022-10-16T06:13:51;11.10;;;6.20;;
65822;SDS011;52585;47.566;19.056;2022-10-16T06:16:18;9.50;;;5.40;;
65822;SDS011;52585;47.566;19.056;2022-10-16T06:18:45;5.60;;;5.00;;
65822;SDS011;52585;47.566;19.056;2022-10-16T06:21:14;9.90;;;5.00;;
65822;SDS011;52585;47.566;19.056;2022-10-16T06:23:43;10.30;;;5.40;;
65822;SDS011;52585;47.566;19.056;2022-10-16T06:26:15;5.60;;;4.80;;
65822;SDS011;52585;47.566;19.056;2022-10-16T06:28:46;7.80;;;6.00;;
65822;SDS011;52585;47.566;19.056;2022-10-16T06:31:14;6.40;;;5.50;;
65822;SDS011;52585;47.566;19.056;2022-10-16T06:33:40;8.40;;;5.50;;
65822;SDS011;52585;47.566;19.056;2022-10-16T06:36:10;7.90;;;5.20;;
65822;SDS011;52585;47.566;19.056;2022-10-16T06:38:38;8.10;;;5.20;;
65822;SDS011;52585;47.566;19.056;2022-10-16T06:41:05;10.50;;;5.40;;
65822;SDS011;52585;47.566;19.056;2022-10-16T06:43:33;6.50;;;5.10;;
65822;SDS011;52585;47.566;19.056;2022-10-16T06:46:02;9.00;;;5.60;;
65822;SDS011;52585;47.566;19.056;2022-10-16T06:48:30;6.80;;;4.80;;
65822;SDS011;52585;47.566;19.056;2022-10-16T06:51:04;9.70;;;5.00;;
65822;SDS011;52585;47.566;19.056;2022-10-16T06:53:36;7.40;;;4.80;;
65822;SDS011;52585;47.566;19.056;2022-10-16T06:58:40;9.90;;;4.90;;
65822;SDS011;52585;47.566;19.056;2022-10-16T07:01:07;9.00;;;4.80;;
65822;SDS011;52585;47.566;19.056;2022-10-16T07:03:37;8.90;;;5.10;;
65822;SDS011;52585;47.566;19.056;2022-10-16T07:06:06;6.40;;;5.20;;
65822;SDS011;52585;47.566;19.056;2022-10-16T07:08:36;8.30;;;5.00;;
65822;SDS011;52585;47.566;19.056;2022-10-16T07:11:09;10.20;;;4.80;;
65822;SDS011;52585;47.566;19.056;2022-10-16T07:13:39;11.00;;;5.30;;
65822;SDS011;52585;47.566;19.056;2022-10-16T07:16:12;5.60;;;4.70;;
65822;SDS011;52585;47.566;19.056;2022-10-16T07:18:41;6.90;;;5.00;;
65822;SDS011;52585;47.566;19.056;2022-10-16T07:21:16;6.10;;;5.00;;
65822;SDS011;52585;47.566;19.056;2022-10-16T07:23:45;8.00;;;4.80;;
65822;SDS011;52585;47.566;19.056;2022-10-16T07:26:11;6.90;;;5.10;;
65822;SDS011;52585;47.566;19.056;2022-10-16T07:28:38;6.90;;;5.00;;
65822;SDS011;52585;47.566;19.056;2022-10-16T07:31:07;8.80;;;5.10;;
65822;SDS011;52585;47.566;19.056;2022-10-16T07:33:37;7.60;;;4.80;;
65822;SDS011;52585;47.566;19.056;2022-10-16T07:36:04;5.40;;;4.70;;
65822;SDS011;52585;47.566;19.056;2022-10-16T07:38:30;5.50;;;4.70;;
65822;SDS011;52585;47.566;19.056;2022-10-16T07:40:58;6.50;;;5.00;;
65822;SDS011;52585;47.566;19.056;2022-10-16T07:43:26;8.70;;;4.60;;
65822;SDS011;52585;47.566;19.056;2022-10-16T07:45:54;6.20;;;5.10;;
65822;SDS011;52585;47.566;19.056;2022-10-16T07:48:22;5.60;;;5.10;;
65822;SDS011;52585;47.566;19.056;2022-10-16T07:50:50;5.70;;;5.10;;
65822;SDS011;52585;47.566;19.056;2022-10-16T07:53:16;5.90;;;4.90;;
65822;SDS011;52585;47.566;19.056;2022-10-16T07:55:43;6.70;;;5.20;;
65822;SDS011;52585;47.566;19.056;2022-10-16T07:58:09;6.70;;;5.00;;
65822;SDS011;52585;47.566;19.056;2022-10-16T08:00:36;6.00;;;5.40;;
65822;SDS011;52585;47.566;19.056;2022-10-16T08:03:03;7.80;;;5.30;;
65822;SDS011;52585;47.566;19.056;2022-10-16T08:05:31;8.70;;;4.80;;
65822;SDS011;52585;47.566;19.056;2022-10-16T08:07:58;7.30;;;5.40;;
65822;SDS011;52585;47.566;19.056;2022-10-16T08:10:26;8.50;;;5.20;;
65822;SDS011;52585;47.566;19.056;2022-10-16T08:12:53;6.00;;;4.60;;
65822;SDS011;52585;47.566;19.056;2022-10-16T08:15:19;9.80;;;5.10;;
65822;SDS011;52585;47.566;19.056;2022-10-16T08:17:58;6.10;;;5.00;;
65822;SDS011;52585;47.566;19.056;2022-10-16T08:20:26;6.10;;;4.80;;
65822;SDS011;52585;47.566;19.056;2022-10-16T08:22:55;6.70;;;4.70;;
65822;SDS011;52585;47.566;19.056;2022-10-16T08:25:22;6.00;;;5.20;;
65822;SDS011;52585;47.566;19.056;2022-10-16T08:27:51;5.70;;;4.80;;
65822;SDS011;52585;47.566;19.056;2022-10-16T08:30:18;5.60;;;5.10;;
65822;SDS011;52585;47.566;19.056;2022-10-16T08:32:45;10.70;;;5.60;;
65822;SDS011;52585;47.566;19.056;2022-10-16T08:35:12;8.90;;;5.40;;
65822;SDS011;52585;47.566;19.056;2022-10-16T08:37:40;6.40;;;5.50;;
65822;SDS011;52585;47.566;19.056;2022-10-16T08:40:25;12.50;;;5.20;;
65822;SDS011;52585;47.566;19.056;2022-10-16T08:45:59;6.30;;;4.80;;
65822;SDS011;52585;47.566;19.056;2022-10-16T08:48:39;7.10;;;5.20;;
65822;SDS011;52585;47.566;19.056;2022-10-16T08:51:29;11.50;;;5.40;;
65822;SDS011;52585;47.566;19.056;2022-10-16T08:54:02;7.40;;;5.10;;
65822;SDS011;52585;47.566;19.056;2022-10-16T08:56:43;7.80;;;5.20;;
65822;SDS011;52585;47.566;19.056;2022-10-16T08:59:14;6.10;;;5.10;;
65822;SDS011;52585;47.566;19.056;2022-10-16T09:01:49;8.40;;;5.30;;
65822;SDS011;52585;47.566;19.056;2022-10-16T09:04:47;6.80;;;5.30;;
65822;SDS011;52585;47.566;19.056;2022-10-16T09:07:35;7.80;;;5.60;;
65822;SDS011;52585;47.566;19.056;2022-10-16T09:10:59;9.30;;;5.70;;
65822;SDS011;52585;47.566;19.056;2022-10-16T09:21:24;5.90;;;4.70;;
65822;SDS011;52585;47.566;19.056;2022-10-16T09:23:56;6.30;;;5.60;;
65822;SDS011;52585;47.566;19.056;2022-10-16T09:26:24;6.70;;;5.40;;
65822;SDS011;52585;47.566;19.056;2022-10-16T09:28:52;6.70;;;5.30;;
65822;SDS011;52585;47.566;19.056;2022-10-16T09:31:21;7.10;;;5.40;;
65822;SDS011;52585;47.566;19.056;2022-10-16T09:33:53;6.10;;;5.40;;
65822;SDS011;52585;47.566;19.056;2022-10-16T09:36:25;7.10;;;5.40;;
65822;SDS011;52585;47.566;19.056;2022-10-16T09:39:09;10.90;;;5.70;;
65822;SDS011;52585;47.566;19.056;2022-10-16T09:41:39;9.90;;;5.40;;
65822;SDS011;52585;47.566;19.056;2022-10-16T09:44:29;7.50;;;5.90;;
65822;SDS011;52585;47.566;19.056;2022-10-16T09:47:10;7.70;;;5.40;;
65822;SDS011;52585;47.566;19.056;2022-10-16T09:50:01;6.40;;;5.50;;
65822;SDS011;52585;47.566;19.056;2022-10-16T09:52:32;8.50;;;5.50;;
65822;SDS011;52585;47.566;19.056;2022-10-16T09:55:12;10.90;;;5.70;;
65822;SDS011;52585;47.566;19.056;2022-10-16T09:57:56;5.90;;;5.20;;
65822;SDS011;52585;47.566;19.056;2022-10-16T10:00:23;8.00;;;5.50;;
65822;SDS011;52585;47.566;19.056;2022-10-16T10:02:51;8.00;;;5.40;;
65822;SDS011;52585;47.566;19.056;2022-10-16T10:05:23;7.70;;;5.30;;
65822;SDS011;52585;47.566;19.056;2022-10-16T10:08:17;10.70;;;5.30;;
65822;SDS011;52585;47.566;19.056;2022-10-16T10:10:43;8.20;;;5.50;;
65822;SDS011;52585;47.566;19.056;2022-10-16T10:13:20;8.50;;;5.40;;
65822;SDS011;52585;47.566;19.056;2022-10-16T10:15:48;10.10;;;5.30;;
65822;SDS011;52585;47.566;19.056;2022-10-16T10:18:21;10.60;;;4.90;;
65822;SDS011;52585;47.566;19.056;2022-10-16T10:21:01;9.20;;;5.80;;
65822;SDS011;52585;47.566;19.056;2022-10-16T10:23:28;7.20;;;5.20;;
65822;SDS011;52585;47.566;19.056;2022-10-16T10:26:11;7.80;;;5.50;;
65822;SDS011;52585;47.566;19.056;2022-10-16T10:40:11;9.10;;;4.90;;
65822;SDS011;52585;47.566;19.056;2022-10-16T10:46:32;7.60;;;6.10;;
65822;SDS011;52585;47.566;19.056;2022-10-16T10:49:06;6.70;;;5.60;;
65822;SDS011;52585;47.566;19.056;2022-10-16T11:08:45;4.80;;;4.80;;
65822;SDS011;52585;47.566;19.056;2022-10-16T11:11:24;10.40;;;4.50;;
65822;SDS011;52585;47.566;19.056;2022-10-16T11:14:21;9.50;;;7.20;;
65822;SDS011;52585;47.566;19.056;2022-10-16T11:17:18;9.20;;;5.30;;
65822;SDS011;52585;47.566;19.056;2022-10-16T11:22:48;8.10;;;4.70;;
65822;SDS011;52585;47.566;19.056;2022-10-16T11:25:28;5.80;;;4.70;;
65822;SDS011;52585;47.566;19.056;2022-10-16T11:31:10;5.10;;;4.50;;
65822;SDS011;52585;47.566;19.056;2022-10-16T11:36:33;12.70;;;4.90;;
65822;SDS011;52585;47.566;19.056;2022-10-16T11:46:58;19.10;;;12.30;;
65822;SDS011;52585;47.566;19.056;2022-10-16T11:49:31;12.00;;;8.10;;
65822;SDS011;52585;47.566;19.056;2022-10-16T11:52:19;8.40;;;6.80;;
65822;SDS011;52585;47.566;19.056;2022-10-16T11:55:19;7.10;;;4.70;;
65822;SDS011;52585;47.566;19.056;2022-10-16T11:57:51;5.70;;;4.90;;
65822;SDS011;52585;47.566;19.056;2022-10-16T12:00:27;6.70;;;4.60;;
65822;SDS011;52585;47.566;19.056;2022-10-16T12:05:48;8.60;;;4.90;;
65822;SDS011;52585;47.566;19.056;2022-10-16T12:08:29;7.10;;;4.20;;
65822;SDS011;52585;47.566;19.056;2022-10-16T12:14:17;4.30;;;3.80;;
65822;SDS011;52585;47.566;19.056;2022-10-16T12:16:57;6.80;;;4.20;;
65822;SDS011;52585;47.566;19.056;2022-10-16T12:19:32;5.60;;;3.70;;
65822;SDS011;52585;47.566;19.056;2022-10-16T12:22:00;5.20;;;3.60;;
65822;SDS011;52585;47.566;19.056;2022-10-16T12:27:06;7.00;;;3.80;;
65822;SDS011;52585;47.566;19.056;2022-10-16T12:29:58;9.60;;;5.20;;
65822;SDS011;52585;47.566;19.056;2022-10-16T12:32:32;8.90;;;4.10;;
65822;SDS011;52585;47.566;19.056;2022-10-16T12:35:05;5.00;;;3.60;;
65822;SDS011;52585;47.566;19.056;2022-10-16T12:37:42;4.60;;;3.40;;
65822;SDS011;52585;47.566;19.056;2022-10-16T12:40:12;9.20;;;3.80;;
65822;SDS011;52585;47.566;19.056;2022-10-16T12:42:42;5.50;;;3.70;;
65822;SDS011;52585;47.566;19.056;2022-10-16T12:45:30;3.90;;;3.40;;
65822;SDS011;52585;47.566;19.056;2022-10-16T12:48:01;4.60;;;3.20;;
65822;SDS011;52585;47.566;19.056;2022-10-16T12:50:33;6.40;;;3.80;;
65822;SDS011;52585;47.566;19.056;2022-10-16T12:53:16;3.60;;;3.10;;
65822;SDS011;52585;47.566;19.056;2022-10-16T12:55:55;5.20;;;3.30;;
65822;SDS011;52585;47.566;19.056;2022-10-16T12:59:04;3.50;;;3.00;;
65822;SDS011;52585;47.566;19.056;2022-10-16T13:11:05;4.10;;;3.70;;
65822;SDS011;52585;47.566;19.056;2022-10-16T13:13:56;6.60;;;3.30;;
65822;SDS011;52585;47.566;19.056;2022-10-16T13:19:50;4.80;;;3.40;;
65822;SDS011;52585;47.566;19.056;2022-10-16T13:22:40;4.80;;;3.70;;
65822;SDS011;52585;47.566;19.056;2022-10-16T13:28:16;5.20;;;3.60;;
65822;SDS011;52585;47.566;19.056;2022-10-16T13:30:56;4.10;;;3.40;;
65822;SDS011;52585;47.566;19.056;2022-10-16T13:33:39;5.30;;;3.60;;
65822;SDS011;52585;47.566;19.056;2022-10-16T13:36:19;7.50;;;3.90;;
65822;SDS011;52585;47.566;19.056;2022-10-16T13:38:47;7.50;;;3.90;;
65822;SDS011;52585;47.566;19.056;2022-10-16T13:41:25;4.60;;;3.80;;
65822;SDS011;52585;47.566;19.056;2022-10-16T13:43:52;4.00;;;3.10;;
65822;SDS011;52585;47.566;19.056;2022-10-16T13:46:22;11.10;;;4.20;;
65822;SDS011;52585;47.566;19.056;2022-10-16T13:48:58;4.70;;;3.20;;
65822;SDS011;52585;47.566;19.056;2022-10-16T13:51:27;7.50;;;3.60;;
65822;SDS011;52585;47.566;19.056;2022-10-16T13:53:55;4.60;;;3.40;;
65822;SDS011;52585;47.566;19.056;2022-10-16T13:56:25;11.20;;;6.90;;
65822;SDS011;52585;47.566;19.056;2022-10-16T13:59:01;5.90;;;4.60;;
65822;SDS011;52585;47.566;19.056;2022-10-16T14:01:42;5.50;;;3.60;;
65822;SDS011;52585;47.566;19.056;2022-10-16T14:04:11;6.70;;;3.50;;
65822;SDS011;52585;47.566;19.056;2022-10-16T14:06:45;7.10;;;3.70;;
65822;SDS011;52585;47.566;19.056;2022-10-16T14:09:30;6.70;;;4.50;;
65822;SDS011;52585;47.566;19.056;2022-10-16T14:12:02;11.70;;;3.80;;
65822;SDS011;52585;47.566;19.056;2022-10-16T14:17:27;5.20;;;3.20;;
65822;SDS011;52585;47.566;19.056;2022-10-16T14:19:58;3.40;;;3.10;;
65822;SDS011;52585;47.566;19.056;2022-10-16T14:22:32;3.90;;;3.60;;
65822;SDS011;52585;47.566;19.056;2022-10-16T14:25:35;5.40;;;2.90;;
65822;SDS011;52585;47.566;19.056;2022-10-16T14:28:13;6.20;;;3.10;;
65822;SDS011;52585;47.566;19.056;2022-10-16T14:33:25;7.00;;;3.60;;
65822;SDS011;52585;47.566;19.056;2022-10-16T14:38:30;5.00;;;3.20;;
65822;SDS011;52585;47.566;19.056;2022-10-16T14:40:59;4.00;;;3.10;;
65822;SDS011;52585;47.566;19.056;2022-10-16T14:43:39;4.90;;;2.90;;
65822;SDS011;52585;47.566;19.056;2022-10-16T14:46:12;4.90;;;3.50;;
65822;SDS011;52585;47.566;19.056;2022-10-16T14:48:45;3.70;;;3.20;;
65822;SDS011;52585;47.566;19.056;2022-10-16T14:51:19;4.60;;;3.10;;
65822;SDS011;52585;47.566;19.056;2022-10-16T14:53:46;5.60;;;3.30;;
65822;SDS011;52585;47.566;19.056;2022-10-16T14:56:21;6.20;;;3.20;;
65822;SDS011;52585;47.566;19.056;2022-10-16T14:58:52;3.20;;;2.90;;
65822;SDS011;52585;47.566;19.056;2022-10-16T15:01:19;3.00;;;2.80;;
65822;SDS011;52585;47.566;19.056;2022-10-16T15:03:45;5.50;;;3.20;;
65822;SDS011;52585;47.566;19.056;2022-10-16T15:06:13;4.00;;;3.30;;
65822;SDS011;52585;47.566;19.056;2022-10-16T15:08:41;3.90;;;3.10;;
65822;SDS011;52585;47.566;19.056;2022-10-16T15:11:16;4.90;;;3.20;;
65822;SDS011;52585;47.566;19.056;2022-10-16T15:13:43;3.90;;;3.00;;
65822;SDS011;52585;47.566;19.056;2022-10-16T15:16:11;4.70;;;3.00;;
65822;SDS011;52585;47.566;19.056;2022-10-16T15:18:39;3.30;;;2.90;;
65822;SDS011;52585;47.566;19.056;2022-10-16T15:21:07;5.60;;;2.90;;
65822;SDS011;52585;47.566;19.056;2022-10-16T15:23:34;3.20;;;2.80;;
65822;SDS011;52585;47.566;19.056;2022-10-16T15:26:00;3.80;;;3.00;;
65822;SDS011;52585;47.566;19.056;2022-10-16T15:28:26;4.80;;;2.90;;
65822;SDS011;52585;47.566;19.056;2022-10-16T15:30:53;4.30;;;2.60;;
65822;SDS011;52585;47.566;19.056;2022-10-16T15:33:27;5.00;;;3.10;;
65822;SDS011;52585;47.566;19.056;2022-10-16T15:35:59;4.90;;;3.10;;
65822;SDS011;52585;47.566;19.056;2022-10-16T15:38:26;5.20;;;3.20;;
65822;SDS011;52585;47.566;19.056;2022-10-16T15:40:53;6.30;;;3.40;;
65822;SDS011;52585;47.566;19.056;2022-10-16T15:43:20;6.80;;;2.80;;
65822;SDS011;52585;47.566;19.056;2022-10-16T15:45:59;4.10;;;3.30;;
65822;SDS011;52585;47.566;19.056;2022-10-16T15:48:31;6.60;;;3.40;;
65822;SDS011;52585;47.566;19.056;2022-10-16T15:50:58;7.00;;;3.40;;
65822;SDS011;52585;47.566;19.056;2022-10-16T15:53:26;6.30;;;3.30;;
65822;SDS011;52585;47.566;19.056;2022-10-16T15:55:52;4.00;;;2.80;;
65822;SDS011;52585;47.566;19.056;2022-10-16T15:58:17;5.50;;;3.20;;
65822;SDS011;52585;47.566;19.056;2022-10-16T16:00:43;6.50;;;3.50;;
65822;SDS011;52585;47.566;19.056;2022-10-16T16:03:09;6.10;;;3.60;;
65822;SDS011;52585;47.566;19.056;2022-10-16T16:05:39;4.50;;;3.60;;
65822;SDS011;52585;47.566;19.056;2022-10-16T16:08:05;5.60;;;3.50;;
65822;SDS011;52585;47.566;19.056;2022-10-16T16:10:41;4.20;;;3.80;;
65822;SDS011;52585;47.566;19.056;2022-10-16T16:13:36;5.60;;;4.10;;
65822;SDS011;52585;47.566;19.056;2022-10-16T16:16:08;5.10;;;4.00;;
65822;SDS011;52585;47.566;19.056;2022-10-16T16:18:35;5.70;;;3.50;;
65822;SDS011;52585;47.566;19.056;2022-10-16T16:21:01;14.30;;;3.70;;
65822;SDS011;52585;47.566;19.056;2022-10-16T16:23:28;4.20;;;3.50;;
65822;SDS011;52585;47.566;19.056;2022-10-16T16:26:11;7.60;;;3.50;;
65822;SDS011;52585;47.566;19.056;2022-10-16T16:28:51;4.50;;;3.20;;
65822;SDS011;52585;47.566;19.056;2022-10-16T16:31:19;6.90;;;3.20;;
65822;SDS011;52585;47.566;19.056;2022-10-16T16:33:50;8.40;;;3.50;;
65822;SDS011;52585;47.566;19.056;2022-10-16T16:36:17;11.80;;;3.60;;
65822;SDS011;52585;47.566;19.056;2022-10-16T16:38:43;9.10;;;3.60;;
65822;SDS011;52585;47.566;19.056;2022-10-16T16:41:22;6.00;;;3.50;;
65822;SDS011;52585;47.566;19.056;2022-10-16T16:44:09;4.30;;;3.50;;
65822;SDS011;52585;47.566;19.056;2022-10-16T16:46:37;4.50;;;3.90;;
65822;SDS011;52585;47.566;19.056;2022-10-16T16:49:10;7.60;;;4.00;;
65822;SDS011;52585;47.566;19.056;2022-10-16T16:51:37;7.20;;;4.20;;
65822;SDS011;52585;47.566;19.056;2022-10-16T16:54:04;5.40;;;4.00;;
65822;SDS011;52585;47.566;19.056;2022-10-16T16:56:34;4.90;;;4.00;;